createdAt,value
2019-04-20T00:01:26.327Z,42.00
2019-04-20T00:03:52.108Z,42.00
2019-04-20T00:06:25.004Z,42.60
2019-04-20T00:09:03.072Z,42.00
2019-04-20T00:11:36.419Z,42.00
2019-04-20T00:14:06.675Z,42.10
2019-04-20T00:16:31.716Z,42.00
2019-04-20T00:19:04.939Z,42.10
2019-04-20T00:21:48.005Z,42.10
2019-04-20T00:24:27.536Z,42.20
2019-04-20T00:27:15.967Z,42.30
2019-04-20T00:29:47.927Z,42.20
2019-04-20T00:32:08.570Z,42.40
2019-04-20T00:34:36.504Z,42.10
2019-04-20T00:37:02.374Z,42.20
2019-04-20T00:39:34.082Z,42.10
2019-04-20T00:42:09.605Z,42.20
2019-04-20T00:44:40.554Z,42.40
2019-04-20T00:47:22.781Z,42.50
2019-04-20T00:49:52.333Z,42.60
2019-04-20T00:52:44.838Z,42.60
2019-04-20T00:54:47.248Z,42.70
2019-04-20T00:57:24.786Z,42.50
2019-04-20T01:00:11.120Z,43.20
2019-04-20T01:02:37.043Z,42.60
2019-04-20T01:05:13.947Z,42.50
2019-04-20T01:07:43.174Z,42.50
2019-04-20T01:10:09.134Z,42.50
2019-04-20T01:12:42.326Z,42.60
2019-04-20T01:15:23.119Z,42.60
2019-04-20T01:17:45.226Z,42.70
2019-04-20T01:20:15.908Z,42.80
2019-04-20T01:22:54.645Z,42.80
2019-04-20T01:25:26.371Z,42.90
2019-04-20T01:28:09.065Z,42.90
2019-04-20T01:30:31.559Z,43.00
2019-04-20T01:33:12.673Z,43.00
2019-04-20T01:35:45.027Z,43.00
2019-04-20T01:38:16.690Z,43.30
2019-04-20T01:40:32.184Z,43.30
2019-04-20T01:43:03.733Z,43.30
2019-04-20T01:45:39.232Z,43.30
2019-04-20T01:48:08.144Z,43.40
2019-04-20T01:50:52.112Z,43.90
2019-04-20T01:53:23.596Z,43.40
2019-04-20T01:56:01.448Z,43.50
2019-04-20T01:58:47.488Z,43.60
2019-04-20T02:01:23.896Z,43.50
2019-04-20T02:04:03.121Z,43.50
2019-04-20T02:06:39.875Z,43.40
2019-04-20T02:09:13.447Z,43.40
2019-04-20T02:11:43.551Z,44.10
2019-04-20T02:14:14.334Z,43.40
2019-04-20T02:16:50.918Z,43.20
2019-04-20T02:19:32.134Z,43.40
2019-04-20T02:22:03.554Z,43.30
2019-04-20T02:24:21.700Z,43.30
2019-04-20T02:26:52.165Z,43.10
2019-04-20T02:29:45.996Z,43.00
2019-04-20T02:32:23.803Z,43.00
2019-04-20T02:35:30.104Z,43.00
2019-04-20T02:38:25.129Z,43.00
2019-04-20T02:43:30.467Z,42.90
2019-04-20T02:45:53.441Z,43.00
2019-04-20T02:48:25.293Z,42.90
2019-04-20T02:50:59.557Z,43.10
2019-04-20T02:53:32.972Z,43.20
2019-04-20T02:58:38.880Z,43.50
2019-04-20T03:00:59.596Z,43.50
2019-04-20T03:03:17.005Z,43.50
2019-04-20T03:05:51.769Z,44.10
2019-04-20T03:08:26.592Z,43.60
2019-04-20T03:11:09.397Z,43.70
2019-04-20T03:13:37.017Z,43.70
2019-04-20T03:16:03.458Z,43.80
2019-04-20T03:18:35.024Z,43.90
2019-04-20T03:21:13.997Z,43.40
2019-04-20T03:23:54.180Z,44.00
2019-04-20T03:26:36.497Z,44.10
2019-04-20T03:29:09.880Z,44.10
2019-04-20T03:37:22.824Z,44.10
2019-04-20T03:39:28.880Z,44.20
2019-04-20T03:41:48.515Z,44.40
2019-04-20T03:44:20.989Z,44.30
2019-04-20T03:46:53.109Z,44.40
2019-04-20T03:49:46.678Z,44.40
2019-04-20T03:52:29.685Z,44.20
2019-04-20T03:55:19.871Z,44.30
2019-04-20T03:58:03.473Z,44.40
2019-04-20T04:00:45.887Z,44.80
2019-04-20T04:03:39.181Z,44.50
2019-04-20T04:06:03.063Z,44.60
2019-04-20T04:08:27.755Z,44.70
2019-04-20T04:11:14.833Z,44.90
2019-04-20T04:13:25.145Z,44.90
2019-04-20T04:16:02.836Z,44.80
2019-04-20T04:18:33.292Z,44.80
2019-04-20T04:21:07.625Z,44.50
2019-04-20T04:23:48.708Z,45.00
2019-04-20T04:26:22.045Z,45.20
2019-04-20T04:28:53.717Z,45.20
2019-04-20T04:31:25.951Z,45.30
2019-04-20T04:34:00.803Z,45.40
2019-04-20T04:36:25.688Z,45.50
2019-04-20T04:39:08.830Z,45.60
2019-04-20T04:41:37.956Z,45.70
2019-04-20T04:44:03.536Z,45.80
2019-04-20T04:46:20.722Z,45.80
2019-04-20T04:48:54.254Z,45.90
2019-04-20T04:51:29.445Z,45.80
2019-04-20T04:54:01.772Z,45.80
2019-04-20T04:56:28.555Z,45.90
2019-04-20T04:59:00.172Z,45.90
2019-04-20T05:01:33.985Z,45.90
2019-04-20T05:04:21.633Z,45.90
2019-04-20T05:06:48.088Z,45.90
2019-04-20T05:09:10.378Z,45.90
2019-04-20T05:11:40.625Z,45.90
2019-04-20T05:14:20.296Z,46.00
2019-04-20T05:16:58.225Z,46.10
2019-04-20T05:19:36.929Z,46.20
2019-04-20T05:22:16.330Z,46.30
2019-04-20T05:24:48.167Z,46.70
2019-04-20T05:27:34.767Z,46.80
2019-04-20T05:29:46.763Z,46.80
2019-04-20T05:32:29.462Z,46.90
2019-04-20T05:35:12.095Z,46.90
2019-04-20T05:37:48.647Z,46.90
2019-04-20T05:40:16.238Z,46.90
2019-04-20T05:43:03.181Z,46.90
2019-04-20T05:45:31.882Z,46.80
2019-04-20T05:48:04.577Z,47.00
2019-04-20T05:50:37.731Z,47.00
2019-04-20T05:53:14.431Z,47.20
2019-04-20T05:55:47.002Z,47.30
2019-04-20T05:58:17.959Z,47.40
2019-04-20T06:00:55.126Z,47.50
2019-04-20T06:03:23.333Z,47.70
2019-04-20T06:05:58.274Z,47.50
2019-04-20T06:08:33.053Z,47.70
2019-04-20T06:10:55.098Z,47.80
2019-04-20T06:13:43.103Z,47.90
2019-04-20T06:16:45.831Z,47.90
2019-04-20T06:19:20.155Z,47.90
2019-04-20T06:22:10.285Z,47.70
2019-04-20T06:24:53.147Z,47.70
2019-04-20T06:27:16.118Z,47.90
2019-04-20T06:29:46.043Z,47.90
2019-04-20T06:32:28.272Z,47.90
2019-04-20T06:34:50.536Z,48.00
2019-04-20T06:37:24.461Z,48.00
2019-04-20T06:40:07.928Z,48.00
2019-04-20T06:42:23.623Z,48.10
2019-04-20T06:45:04.748Z,47.50
2019-04-20T06:47:31.041Z,48.10
2019-04-20T06:50:07.453Z,47.80
2019-04-20T06:53:20.492Z,48.50
2019-04-20T06:55:54.738Z,48.10
2019-04-20T06:58:29.136Z,48.00
2019-04-20T07:00:53.452Z,48.40
2019-04-20T07:03:30.932Z,48.40
2019-04-20T07:06:02.903Z,48.00
2019-04-20T07:08:40.879Z,48.00
2019-04-20T07:11:07.273Z,47.90
2019-04-20T07:13:22.124Z,47.80
2019-04-20T07:16:22.549Z,48.10
2019-04-20T07:19:15.288Z,48.20
2019-04-20T07:24:57.826Z,48.30
2019-04-20T07:27:25.902Z,48.30
2019-04-20T07:29:58.868Z,47.80
2019-04-20T07:32:17.840Z,47.10
2019-04-20T07:35:03.076Z,46.30
2019-04-20T07:38:07.139Z,46.20
2019-04-20T07:40:17.653Z,45.70
2019-04-20T07:42:47.998Z,46.20
2019-04-20T07:45:21.636Z,46.10
2019-04-20T07:50:16.037Z,45.50
2019-04-20T07:52:45.065Z,45.10
2019-04-20T07:57:51.298Z,45.30
2019-04-20T08:00:38.304Z,44.80
2019-04-20T08:03:28.372Z,44.40
2019-04-20T08:05:48.716Z,45.00
2019-04-20T08:08:30.982Z,44.90
2019-04-20T08:10:58.630Z,44.70
2019-04-20T08:13:40.377Z,45.10
2019-04-20T08:16:06.765Z,45.10
2019-04-20T08:18:45.777Z,44.90
2019-04-20T08:21:13.011Z,44.70
2019-04-20T08:23:47.294Z,45.10
2019-04-20T08:26:05.530Z,44.40
2019-04-20T08:28:46.534Z,44.80
2019-04-20T08:31:55.983Z,44.80
2019-04-20T08:34:38.330Z,44.40
2019-04-20T08:37:01.663Z,44.50
2019-04-20T08:39:46.706Z,44.80
2019-04-20T08:42:07.442Z,44.00
2019-04-20T08:47:30.555Z,45.00
2019-04-20T08:50:16.773Z,45.10
2019-04-20T08:53:03.787Z,45.00
2019-04-20T08:55:10.619Z,45.40
2019-04-20T08:57:27.211Z,44.50
2019-04-20T09:00:00.989Z,44.60
2019-04-20T09:02:30.442Z,45.00
2019-04-20T09:05:07.063Z,44.80
2019-04-20T09:07:39.084Z,45.10
2019-04-20T09:10:28.172Z,45.30
2019-04-20T09:12:53.209Z,45.50
2019-04-20T09:15:12.427Z,45.10
2019-04-20T09:18:22.500Z,45.30
2019-04-20T09:20:53.821Z,45.10
2019-04-20T09:23:31.574Z,45.00
2019-04-20T09:26:08.822Z,45.20
2019-04-20T09:28:48.017Z,45.60
2019-04-20T09:31:31.382Z,44.80
2019-04-20T09:34:20.376Z,44.50
2019-04-20T09:37:14.150Z,45.10
2019-04-20T09:40:09.327Z,43.80
2019-04-20T09:42:26.874Z,43.20
2019-04-20T09:44:59.714Z,44.40
2019-04-20T09:47:38.034Z,44.50
2019-04-20T09:50:21.409Z,44.60
2019-04-20T09:52:51.669Z,44.00
2019-04-20T09:55:21.643Z,43.30
2019-04-20T09:57:58.640Z,43.30
2019-04-20T10:00:33.933Z,42.80
2019-04-20T10:02:48.433Z,43.10
2019-04-20T10:05:19.809Z,43.30
2019-04-20T10:07:55.995Z,42.90
2019-04-20T10:10:31.601Z,43.10
2019-04-20T10:12:54.258Z,44.30
2019-04-20T10:15:27.590Z,43.60
2019-04-20T10:17:57.198Z,44.00
2019-04-20T10:20:31.043Z,44.50
2019-04-20T10:23:00.516Z,43.40
2019-04-20T10:25:30.970Z,43.20
2019-04-20T10:28:05.537Z,43.60
2019-04-20T10:30:34.740Z,43.50
2019-04-20T10:33:05.766Z,43.50
2019-04-20T10:35:36.162Z,43.10
2019-04-20T10:38:21.420Z,41.80
2019-04-20T10:41:03.452Z,42.30
2019-04-20T10:43:24.226Z,42.00
2019-04-20T10:45:55.029Z,41.20
2019-04-20T10:48:26.953Z,39.60
2019-04-20T10:50:57.276Z,39.90
2019-04-20T10:53:28.312Z,40.00
2019-04-20T10:55:59.090Z,40.00
2019-04-20T10:58:30.142Z,39.10
2019-04-20T11:01:01.792Z,39.00
2019-04-20T11:03:32.382Z,38.50
2019-04-20T11:06:02.847Z,38.00
2019-04-20T11:08:33.314Z,37.90
2019-04-20T11:11:13.111Z,38.40
2019-04-20T11:13:37.089Z,38.40
2019-04-20T11:16:08.546Z,38.20
2019-04-20T11:18:39.753Z,39.20
2019-04-20T11:21:11.446Z,38.70
2019-04-20T11:23:42.465Z,38.70
2019-04-20T11:26:14.036Z,39.00
2019-04-20T11:28:44.573Z,38.80
2019-04-20T11:31:16.618Z,38.60
2019-04-20T11:33:48.018Z,38.30
2019-04-20T11:36:19.186Z,37.80
2019-04-20T11:38:51.099Z,37.80
2019-04-20T11:41:26.097Z,37.20
2019-04-20T11:43:54.003Z,37.50
2019-04-20T11:46:24.930Z,38.70
2019-04-20T11:48:55.410Z,38.50
2019-04-20T11:51:25.723Z,38.30
2019-04-20T11:53:56.472Z,36.70
2019-04-20T11:56:32.953Z,37.00
2019-04-20T11:59:00.948Z,36.80
2019-04-20T12:01:57.463Z,36.60
2019-04-20T12:04:42.165Z,36.20
2019-04-20T12:07:06.737Z,37.30
2019-04-20T12:09:37.722Z,36.30
2019-04-20T12:12:18.346Z,36.10
2019-04-20T12:14:40.903Z,35.20
2019-04-20T12:17:11.563Z,35.20
2019-04-20T12:19:41.982Z,34.20
2019-04-20T12:22:13.900Z,34.10
2019-04-20T12:24:44.578Z,34.50
2019-04-20T12:27:16.580Z,34.90
2019-04-20T12:29:47.870Z,34.60
2019-04-20T12:32:19.560Z,35.00
2019-04-20T12:34:52.013Z,35.30
2019-04-20T12:37:22.918Z,35.80
2019-04-20T12:39:53.357Z,34.70
2019-04-20T12:42:23.756Z,34.90
2019-04-20T12:44:55.614Z,35.40
2019-04-20T12:47:26.029Z,34.80
2019-04-20T12:49:56.348Z,34.60
2019-04-20T12:52:26.786Z,34.10
2019-04-20T12:55:00.838Z,34.10
2019-04-20T12:57:29.290Z,34.80
2019-04-20T12:59:59.671Z,35.10
2019-04-20T13:02:31.412Z,34.70
2019-04-20T13:05:01.932Z,35.20
2019-04-20T13:07:40.554Z,34.10
2019-04-20T13:10:07.304Z,33.20
2019-04-20T13:12:44.649Z,33.10
2019-04-20T13:15:38.405Z,33.70
2019-04-20T13:18:11.188Z,32.80
2019-04-20T13:20:41.905Z,32.90
2019-04-20T13:23:13.017Z,33.80
2019-04-20T13:25:43.452Z,34.10
2019-04-20T13:28:14.775Z,35.00
2019-04-20T13:30:45.927Z,35.00
2019-04-20T13:33:17.588Z,35.00
2019-04-20T13:35:48.210Z,34.10
2019-04-20T13:38:18.541Z,32.50
2019-04-20T13:40:49.190Z,32.50
2019-04-20T13:43:19.775Z,33.70
2019-04-20T13:45:50.948Z,33.70
2019-04-20T13:48:21.424Z,32.80
2019-04-20T13:50:51.830Z,32.40
2019-04-20T13:53:23.393Z,32.50
2019-04-20T13:55:56.037Z,33.30
2019-04-20T13:58:58.513Z,33.40
2019-04-20T14:01:44.523Z,33.20
2019-04-20T14:04:20.982Z,32.70
2019-04-20T14:06:53.358Z,32.80
2019-04-20T14:09:23.703Z,32.30
2019-04-20T14:11:54.014Z,31.80
2019-04-20T14:14:25.422Z,32.10
2019-04-20T14:16:56.968Z,32.20
2019-04-20T14:19:31.309Z,32.20
2019-04-20T14:22:02.178Z,31.50
2019-04-20T14:24:33.139Z,31.20
2019-04-20T14:27:04.289Z,31.10
2019-04-20T14:29:35.137Z,31.70
2019-04-20T14:32:07.685Z,31.50
2019-04-20T14:34:40.857Z,31.90
2019-04-20T14:37:11.349Z,31.20
2019-04-20T14:39:42.549Z,30.80
2019-04-20T14:42:24.278Z,30.20
2019-04-20T14:44:47.895Z,30.10
2019-04-20T14:47:21.699Z,30.00
2019-04-20T14:49:52.664Z,30.50
2019-04-20T14:52:25.773Z,30.60
2019-04-20T14:54:57.593Z,30.00
2019-04-20T14:57:28.061Z,30.50
2019-04-20T15:00:03.521Z,30.80
2019-04-20T15:02:34.291Z,31.40
2019-04-20T15:05:05.442Z,30.50
2019-04-20T15:07:36.468Z,30.20
2019-04-20T15:10:06.954Z,30.50
2019-04-20T15:12:49.041Z,30.80
2019-04-20T15:15:10.590Z,29.90
2019-04-20T15:17:51.508Z,30.00
2019-04-20T15:20:33.541Z,29.70
2019-04-20T15:23:11.710Z,29.10
2019-04-20T15:25:42.315Z,29.40
2019-04-20T15:28:12.737Z,29.00
2019-04-20T15:30:44.419Z,29.10
2019-04-20T15:33:14.957Z,29.30
2019-04-20T15:35:46.119Z,29.60
2019-04-20T15:38:17.540Z,29.50
2019-04-20T15:40:49.054Z,29.20
2019-04-20T15:43:24.022Z,29.00
2019-04-20T15:45:51.748Z,28.90
2019-04-20T15:48:22.139Z,29.40
2019-04-20T15:50:53.772Z,29.10
2019-04-20T15:53:25.596Z,28.90
2019-04-20T15:55:57.492Z,30.00
2019-04-20T15:58:28.163Z,30.80
2019-04-20T16:01:00.425Z,30.00
2019-04-20T16:03:35.499Z,30.00
2019-04-20T16:06:07.534Z,29.90
2019-04-20T16:08:42.161Z,29.30
2019-04-20T16:11:15.233Z,29.90
2019-04-20T16:13:49.681Z,29.50
2019-04-20T16:16:19.483Z,30.00
2019-04-20T16:18:50.766Z,30.00
2019-04-20T16:21:24.900Z,29.80
2019-04-20T16:24:15.025Z,30.00
2019-04-20T16:27:05.397Z,29.40
2019-04-20T16:29:36.083Z,29.40
2019-04-20T16:32:06.762Z,29.50
2019-04-20T16:34:38.397Z,29.50
2019-04-20T16:37:10.559Z,29.50
2019-04-20T16:39:42.891Z,29.50
2019-04-20T16:42:14.577Z,29.60
2019-04-20T16:44:47.164Z,29.60
2019-04-20T16:47:18.469Z,29.30
2019-04-20T16:49:48.958Z,29.10
2019-04-20T16:52:21.189Z,29.30
2019-04-20T16:54:53.529Z,29.40
2019-04-20T16:57:25.613Z,29.20
2019-04-20T16:59:58.187Z,29.50
2019-04-20T17:02:28.245Z,29.70
2019-04-20T17:04:58.877Z,29.50
2019-04-20T17:07:33.188Z,29.70
2019-04-20T17:10:04.227Z,29.60
2019-04-20T17:12:35.967Z,29.50
2019-04-20T17:15:07.794Z,29.60
2019-04-20T17:17:40.081Z,29.60
2019-04-20T17:20:13.925Z,29.60
2019-04-20T17:22:46.680Z,29.60
2019-04-20T17:25:17.092Z,29.90
2019-04-20T17:28:11.010Z,30.20
2019-04-20T17:30:59.376Z,30.00
2019-04-20T17:34:01.533Z,30.30
2019-04-20T17:36:27.760Z,30.40
2019-04-20T17:38:59.462Z,31.00
2019-04-20T17:41:49.973Z,30.70
2019-04-20T17:44:14.346Z,30.70
2019-04-20T17:46:43.842Z,31.10
2019-04-20T17:49:19.492Z,31.50
2019-04-20T17:51:58.022Z,31.70
2019-04-20T17:54:40.141Z,31.70
2019-04-20T17:57:15.403Z,32.00
2019-04-20T17:59:58.254Z,32.00
2019-04-20T18:02:59.251Z,32.30
2019-04-20T18:05:44.897Z,32.30
2019-04-20T18:08:20.484Z,32.70
2019-04-20T18:10:48.656Z,32.80
2019-04-20T18:13:13.723Z,33.10
2019-04-20T18:15:52.696Z,33.40
2019-04-20T18:18:52.845Z,33.50
2019-04-20T18:21:21.124Z,33.60
2019-04-20T18:23:54.118Z,33.80
2019-04-20T18:26:43.219Z,33.90
2019-04-20T18:29:16.545Z,33.90
2019-04-20T18:31:47.174Z,34.00
2019-04-20T18:34:25.623Z,34.00
2019-04-20T18:36:56.488Z,33.90
2019-04-20T18:39:33.963Z,34.10
2019-04-20T18:42:12.210Z,34.30
2019-04-20T18:44:55.693Z,34.40
2019-04-20T18:47:23.859Z,34.50
2019-04-20T18:49:47.566Z,34.90
2019-04-20T18:52:09.500Z,34.60
2019-04-20T18:54:47.443Z,34.80
2019-04-20T18:57:21.511Z,34.70
2019-04-20T18:59:52.979Z,34.90
2019-04-20T19:02:26.831Z,35.00
2019-04-20T19:04:53.895Z,34.90
2019-04-20T19:07:25.711Z,35.10
2019-04-20T19:10:03.883Z,35.40
2019-04-20T19:12:42.051Z,35.10
2019-04-20T19:15:37.417Z,35.40
2019-04-20T19:18:12.903Z,35.30
2019-04-20T19:20:39.111Z,35.60
2019-04-20T19:23:11.012Z,35.80
2019-04-20T19:25:44.194Z,35.90
2019-04-20T19:28:21.648Z,35.90
2019-04-20T19:31:01.714Z,36.10
2019-04-20T19:33:35.744Z,36.10
2019-04-20T19:35:59.638Z,36.20
2019-04-20T19:38:38.005Z,36.20
2019-04-20T19:41:07.536Z,36.40
2019-04-20T19:43:39.882Z,36.40
2019-04-20T19:48:51.298Z,36.60
2019-04-20T19:51:36.136Z,36.80
2019-04-20T19:54:09.509Z,36.80
2019-04-20T19:56:38.784Z,36.80
2019-04-20T19:59:08.966Z,37.00
2019-04-20T20:01:25.695Z,37.20
2019-04-20T20:04:00.933Z,37.10
2019-04-20T20:06:39.109Z,37.30
2019-04-20T20:09:09.380Z,37.40
2019-04-20T20:11:42.323Z,37.60
2019-04-20T20:14:13.286Z,37.70
2019-04-20T20:17:06.806Z,37.60
2019-04-20T20:19:32.346Z,37.60
2019-04-20T20:22:07.886Z,37.60
2019-04-20T20:24:27.211Z,38.40
2019-04-20T20:27:02.524Z,37.70
2019-04-20T20:29:37.554Z,37.80
2019-04-20T20:32:15.602Z,37.70
2019-04-20T20:34:40.468Z,37.60
2019-04-20T20:37:12.364Z,37.80
2019-04-20T20:39:40.882Z,37.90
2019-04-20T20:42:23.212Z,38.00
2019-04-20T20:44:52.416Z,38.00
2019-04-20T20:47:43.673Z,38.70
2019-04-20T20:50:15.502Z,38.20
2019-04-20T20:52:36.843Z,38.20
2019-04-20T20:55:03.745Z,38.30
2019-04-20T20:57:38.607Z,38.40
2019-04-20T21:00:04.674Z,38.30
2019-04-20T21:02:44.144Z,38.30
2019-04-20T21:05:03.834Z,38.40
2019-04-20T21:07:36.521Z,38.40
2019-04-20T21:10:08.232Z,38.50
2019-04-20T21:12:46.698Z,38.30
2019-04-20T21:15:16.343Z,38.60
2019-04-20T21:18:12.201Z,38.60
2019-04-20T21:20:27.588Z,38.60
2019-04-20T21:23:03.643Z,38.70
2019-04-20T21:25:27.658Z,38.60
2019-04-20T21:27:57.039Z,38.70
2019-04-20T21:30:35.289Z,38.60
2019-04-20T21:33:03.328Z,38.80
2019-04-20T21:35:38.137Z,38.90
2019-04-20T21:38:07.971Z,39.00
2019-04-20T21:40:40.042Z,39.00
2019-04-20T21:43:09.122Z,38.90
2019-04-20T21:45:47.857Z,38.80
2019-04-20T21:48:32.959Z,38.50
2019-04-20T21:51:01.612Z,38.70
2019-04-20T21:53:23.137Z,38.70
2019-04-20T21:55:48.049Z,38.60
2019-04-20T21:58:27.141Z,38.70
2019-04-20T22:01:08.080Z,38.80
2019-04-20T22:03:29.878Z,38.70
2019-04-20T22:06:04.707Z,38.60
2019-04-20T22:08:39.310Z,38.70
2019-04-20T22:11:08.143Z,38.50
2019-04-20T22:13:42.075Z,38.70
2019-04-20T22:16:12.667Z,38.70
2019-04-20T22:18:50.964Z,38.80
2019-04-20T22:21:24.869Z,39.00
2019-04-20T22:24:04.217Z,38.90
2019-04-20T22:26:30.281Z,39.10
2019-04-20T22:28:52.036Z,39.00
2019-04-20T22:31:24.397Z,39.10
2019-04-20T22:33:56.258Z,39.00
2019-04-20T22:36:34.360Z,39.00
2019-04-20T22:39:13.801Z,39.00
2019-04-20T22:42:07.154Z,39.00
2019-04-20T22:44:36.299Z,39.10
2019-04-20T22:47:13.989Z,39.10
2019-04-20T22:49:52.893Z,39.30
2019-04-20T22:52:31.594Z,39.40
2019-04-20T22:55:01.461Z,40.00
2019-04-20T22:57:31.523Z,40.20
2019-04-20T22:59:58.044Z,39.70
2019-04-20T23:02:23.057Z,39.60
2019-04-20T23:04:53.208Z,39.80
2019-04-20T23:07:23.603Z,39.80
2019-04-20T23:09:56.463Z,39.90
2019-04-20T23:12:27.578Z,40.00
2019-04-20T23:14:58.549Z,40.00
2019-04-20T23:17:35.955Z,40.00
2019-04-20T23:20:03.248Z,40.00
2019-04-20T23:22:40.050Z,40.00
2019-04-20T23:25:07.121Z,40.00
2019-04-20T23:27:39.075Z,40.10
2019-04-20T23:30:18.941Z,40.10
2019-04-20T23:32:42.247Z,40.10
2019-04-20T23:35:18.093Z,40.30
2019-04-20T23:37:46.299Z,40.10
2019-04-20T23:40:16.828Z,40.10
2019-04-20T23:43:10.230Z,40.20
2019-04-20T23:45:59.165Z,40.30
2019-04-20T23:48:42.998Z,40.30
2019-04-20T23:51:36.243Z,40.30
2019-04-20T23:53:56.776Z,40.30
2019-04-20T23:56:18.481Z,40.30
2019-04-20T23:58:52.782Z,40.30
